createdAt,value
2022-12-04T00:05:16.027Z,66.15
2022-12-04T00:15:25.710Z,65.29
2022-12-04T00:25:35.261Z,65.35
2022-12-04T00:35:42.470Z,66.25
2022-12-04T00:45:45.927Z,65.36
2022-12-04T00:55:50.427Z,65.82
2022-12-04T01:05:54.156Z,65.90
2022-12-04T01:15:58.663Z,65.32
2022-12-04T01:26:02.254Z,65.27
2022-12-04T01:36:09.204Z,65.25
2022-12-04T01:46:13.196Z,65.31
2022-12-04T01:56:18.301Z,65.51
2022-12-04T02:06:21.405Z,65.28
2022-12-04T02:16:29.895Z,65.28
2022-12-04T02:26:42.280Z,66.37
2022-12-04T02:36:51.547Z,67.40
2022-12-04T02:46:57.989Z,69.04
2022-12-04T02:57:03.731Z,68.95
2022-12-04T03:07:13.536Z,69.43
2022-12-04T03:17:22.003Z,69.39
2022-12-04T03:27:27.899Z,68.55
2022-12-04T03:37:36.952Z,68.91
2022-12-04T03:47:44.327Z,68.12
2022-12-04T03:57:50.598Z,68.75
2022-12-04T04:07:56.254Z,65.84
2022-12-04T04:18:20.379Z,67.17
2022-12-04T04:28:31.257Z,69.33
2022-12-04T04:38:39.166Z,73.19
2022-12-04T04:48:44.444Z,75.84
2022-12-04T04:58:48.964Z,71.57
2022-12-04T05:08:52.104Z,71.27
2022-12-04T05:19:14.521Z,68.64
2022-12-04T05:29:17.678Z,67.58
2022-12-04T05:39:22.157Z,70.07
2022-12-04T05:49:25.285Z,68.59
2022-12-04T05:59:29.761Z,66.06
2022-12-04T06:09:32.829Z,65.53
2022-12-04T06:19:37.299Z,65.90
2022-12-04T06:29:40.440Z,65.78
2022-12-04T06:39:44.933Z,66.88
2022-12-04T06:49:50.923Z,65.80
2022-12-04T06:59:55.659Z,64.83
2022-12-04T07:09:58.881Z,65.74
2022-12-04T07:20:03.786Z,65.35
2022-12-04T07:30:14.079Z,65.85
2022-12-04T07:40:20.236Z,65.53
2022-12-04T07:50:23.496Z,67.22
2022-12-04T08:00:28.202Z,70.60
2022-12-04T08:10:31.397Z,70.79
2022-12-04T08:20:36.409Z,71.79
2022-12-04T08:30:39.632Z,70.70
2022-12-04T08:40:44.047Z,70.85
2022-12-04T08:50:47.214Z,67.49
2022-12-04T09:00:51.704Z,66.57
2022-12-04T09:10:55.580Z,67.90
2022-12-04T09:21:00.733Z,66.91
2022-12-04T09:31:06.224Z,67.24
2022-12-04T09:41:19.941Z,65.12
2022-12-04T09:51:25.027Z,64.58
2022-12-04T10:01:34.322Z,63.82
2022-12-04T10:11:45.327Z,66.61
2022-12-04T10:21:58.838Z,68.22
2022-12-04T10:32:07.599Z,66.22
2022-12-04T10:42:22.127Z,67.20
2022-12-04T10:52:25.456Z,67.02
2022-12-04T11:02:31.415Z,66.93
2022-12-04T11:12:35.004Z,65.17
2022-12-04T11:22:50.749Z,62.97
2022-12-04T11:32:54.290Z,62.42
2022-12-04T11:43:06.914Z,61.93
2022-12-04T11:53:17.301Z,61.91
2022-12-04T12:03:27.440Z,63.07
2022-12-04T12:13:36.107Z,62.21
2022-12-04T12:23:52.039Z,61.92
2022-12-04T12:33:58.585Z,62.50
2022-12-04T12:44:06.298Z,61.89
2022-12-04T12:54:17.167Z,60.83
2022-12-04T13:04:26.668Z,59.99
2022-12-04T13:14:29.853Z,61.74
2022-12-04T13:24:46.275Z,62.76
2022-12-04T13:34:58.057Z,61.19
2022-12-04T13:45:08.913Z,60.79
2022-12-04T13:55:26.877Z,61.86
2022-12-04T14:05:35.660Z,59.71
2022-12-04T14:15:39.108Z,59.28
2022-12-04T14:25:43.929Z,59.48
2022-12-04T14:35:49.644Z,58.34
2022-12-04T14:45:59.595Z,58.43
2022-12-04T14:56:13.602Z,58.58
2022-12-04T15:06:22.306Z,58.09
2022-12-04T15:16:25.781Z,58.01
2022-12-04T15:26:30.742Z,58.17
2022-12-04T15:36:41.268Z,58.44
2022-12-04T15:46:46.240Z,58.96
2022-12-04T15:57:00.032Z,59.19
2022-12-04T16:07:04.994Z,59.56
2022-12-04T16:17:11.277Z,59.83
2022-12-04T16:27:20.022Z,60.52
2022-12-04T16:37:24.184Z,60.50
2022-12-04T16:47:29.594Z,61.05
2022-12-04T16:57:32.838Z,61.17
2022-12-04T17:07:37.772Z,61.80
2022-12-04T17:17:41.331Z,61.91
2022-12-04T17:27:46.502Z,64.81
2022-12-04T17:37:50.083Z,64.47
2022-12-04T17:47:54.762Z,64.62
2022-12-04T17:57:58.412Z,65.16
2022-12-04T18:08:03.235Z,64.80
2022-12-04T18:18:06.566Z,68.40
2022-12-04T18:28:11.289Z,67.62
2022-12-04T18:38:18.211Z,67.04
2022-12-04T18:48:23.174Z,67.67
2022-12-04T18:58:26.607Z,66.91
2022-12-04T19:08:34.287Z,67.66
2022-12-04T19:18:40.008Z,64.38
2022-12-04T19:28:44.709Z,66.34
2022-12-04T19:38:48.074Z,67.52
2022-12-04T19:48:54.619Z,69.19
2022-12-04T19:59:00.133Z,70.14
2022-12-04T20:09:07.133Z,68.61
2022-12-04T20:19:14.265Z,68.12
2022-12-04T20:29:20.140Z,68.62
2022-12-04T20:39:23.268Z,68.92
2022-12-04T20:49:28.113Z,68.82
2022-12-04T20:59:32.239Z,67.80
2022-12-04T21:09:36.977Z,67.97
2022-12-04T21:19:40.270Z,70.37
2022-12-04T21:29:44.982Z,67.02
2022-12-04T21:39:48.038Z,67.61
2022-12-04T21:49:52.588Z,68.34
2022-12-04T21:59:55.988Z,67.57
2022-12-04T22:10:04.162Z,68.34
2022-12-04T22:20:10.999Z,67.81
2022-12-04T22:30:15.961Z,68.36
2022-12-04T22:40:19.391Z,67.33
2022-12-04T22:50:24.263Z,64.10
2022-12-04T23:00:28.325Z,65.59
2022-12-04T23:10:32.821Z,65.34
2022-12-04T23:20:35.940Z,64.33
2022-12-04T23:30:46.060Z,63.60
2022-12-04T23:40:49.618Z,63.04
2022-12-04T23:50:54.203Z,62.30
